Moose, WY

12:16 AM MST on February 27, 2017 (GMT -0700)
Craighead Beringia South | | Change Station
Active Advisory: Special Statement

Elev 6654 ft 43.62 °N, 110.62 °W | Updated 7 minutes ago

Overcast
Overcast
15.0 °F
Feels Like 15 °F
N
0.0
Wind Variable Wind from WNW
Gusts 0.0 mph

Today
High -- | Low -- °F
--% Chance of Precip.
Yesterday
High -- | Low -- °F
Precip. -- in
Pressure 29.58 in
Visibility 1.0 miles
Clouds Mostly Cloudy 600 ft
Overcast 1000 ft
Windchill 15 °F
Dew Point 12 °F
Humidity 88%
Rainfall 0.00 in
Snow Depth Not available.
7:02 AM 6:09 PM
New Moon, 1% visible
METAR KJAC 270715Z AUTO 23012KT 1SM BKN006 OVC010 M09/M09 A2958 RMK AO1
Pressure 29.58 in
Visibility 1.0 miles
Clouds Mostly Cloudy 600 ft
Overcast 1000 ft
Windchill 15 °F
Dew Point 12 °F
Humidity 88%
Rainfall 0.00 in
Snow Depth Not available.
7:02 AM 6:09 PM
New Moon, 1% visible
METAR KJAC 270715Z AUTO 23012KT 1SM BKN006 OVC010 M09/M09 A2958 RMK AO1

Get Your Daily Forecast Email!

Thanks for signing up!

Be on the lookout for a verification email in your inbox.

You'll start receiving the daily forecast at 8 AM.

×

10-Day Weather Forecast

Almanac

Astronomy

Feb. 27, 2017 Rise Set
Actual Time
Civil Twilight
Nautical Twilight
Astronomical Twilight
Moon
Length of Visible Light
Length of Day
Tomorrow will be .
, % of the Moon is Illuminated

Today's Extremes

State Highs State Lows

Community

WunderPhotos

Upload Photos

1,962,540 photos uploaded!

WunderBlog® & News

Nearby

Air Quality

  Air Quality AQ Index Pollutant
Not available.

Snow Depth

Station Depth Elevation

Earthquake Activity

City Distance Mag. Time & Date
Minimum magnitude displayed is 2.5.

Coastal Water Temperatures

Place Temperature

Stations

Nearby Weather Stations

Station Location Temp. Windchill Dew Point Humidity Wind Precip. Elev Updated Type
                   

Watches & Warnings

Special Statement
Issued: 7:08 PM MST Feb. 26, 2017 – National Weather Service

... Increasing snow across western Wyoming tonight; expect slick
roads and limited visibility Monday morning...

Snow will increase across the Jackson and Star valleys and
surrounding mountains ahead of an approaching cold front. Snowfall
will be most widespread, with locally moderate to heavy snowfall,
from the predawn hours Monday morning through early Monday
afternoon. Snow will decrease behind the cold frontal passage mid
to late Monday afternoon. Total snowfall will range from 1 to 4
inches across the Jackson and Star valleys, with locally higher
amounts from Thayne to alpine. The mountains will receive 3 to 6
inches of new snowfall with higher amounts of 6 to 9 inches in
some areas above 9000 feet.

Morning commuters should allow extra time to reach their
destination Monday morning, especially if travelling over
mountain passes.